Time;durP1;ratioP1;P1;durP2;ratioP2;P2;SDS_P1;SDS_P2;PMS_P1;PMS_P2;Temp;Humidity;BMP_temperature;BMP_pressure;BME280_temperature;BME280_humidity;BME280_pressure;Samples;Min_cycle;Max_cycle;Signal;HPM_P1;HPM_P2
2023/05/17 00:02:18;;;;;;;8.35;1.15;;;9.00;99.90;;;;;;4956908;28;20086;-77
2023/05/17 00:04:44;;;;;;;2.95;0.70;;;8.90;99.90;;;;;;4965297;28;20031;-77
2023/05/17 00:07:10;;;;;;;3.30;1.13;;;8.90;99.90;;;;;;4957000;28;20087;-77
2023/05/17 00:09:35;;;;;;;2.92;0.68;;;9.00;99.90;;;;;;4953912;28;20046;-77
2023/05/17 00:12:02;;;;;;;8.82;1.60;;;8.90;99.90;;;;;;4947063;28;20040;-78
2023/05/17 00:14:27;;;;;;;0.47;0.47;;;8.90;99.90;;;;;;4962865;28;20079;-77
2023/05/17 00:16:53;;;;;;;2.97;1.45;;;8.90;99.90;;;;;;4972085;28;20495;-78
2023/05/17 00:19:19;;;;;;;3.80;0.63;;;8.90;99.90;;;;;;4963553;28;20082;-78
2023/05/17 00:21:45;;;;;;;2.40;0.90;;;8.80;99.90;;;;;;4932600;29;20040;-78
2023/05/17 00:24:10;;;;;;;1.20;0.52;;;8.80;99.90;;;;;;4956976;28;20034;-78
2023/05/17 00:26:36;;;;;;;2.28;0.90;;;8.70;99.90;;;;;;4964151;28;20027;-78
2023/05/17 00:29:02;;;;;;;1.42;0.55;;;8.70;99.90;;;;;;4956803;28;20055;-78
2023/05/17 00:31:28;;;;;;;2.92;0.40;;;8.70;99.90;;;;;;4965169;28;20095;-78
2023/05/17 00:33:54;;;;;;;5.70;0.47;;;8.70;99.90;;;;;;4957874;28;20045;-78
2023/05/17 00:36:20;;;;;;;1.85;0.90;;;8.70;99.90;;;;;;4935603;28;20106;-78
2023/05/17 00:38:45;;;;;;;2.83;0.50;;;8.70;99.90;;;;;;4953156;28;20097;-79
2023/05/17 00:41:11;;;;;;;1.77;0.75;;;8.70;99.90;;;;;;4968498;28;20037;-79
2023/05/17 00:43:38;;;;;;;7.10;1.08;;;8.60;99.90;;;;;;4956780;28;20038;-78
2023/05/17 00:46:04;;;;;;;3.47;1.25;;;8.70;99.90;;;;;;4956300;28;20028;-79
2023/05/17 00:48:30;;;;;;;4.82;0.73;;;8.70;99.90;;;;;;4953465;28;20038;-78
2023/05/17 00:50:57;;;;;;;7.43;0.93;;;8.70;99.90;;;;;;4965839;28;20514;-78
2023/05/17 00:53:23;;;;;;;1.10;0.55;;;8.60;99.90;;;;;;4953002;28;20046;-78
2023/05/17 00:55:49;;;;;;;1.48;0.88;;;8.60;99.90;;;;;;4965204;28;20038;-79
2023/05/17 00:58:15;;;;;;;1.65;0.73;;;8.50;99.90;;;;;;4955461;28;20042;-78
2023/05/17 01:00:42;;;;;;;6.70;1.00;;;8.40;99.90;;;;;;4963714;28;20042;-76
2023/05/17 01:03:08;;;;;;;1.88;0.63;;;8.40;99.90;;;;;;4962210;28;20046;-77
2023/05/17 01:05:33;;;;;;;5.10;1.40;;;8.30;99.90;;;;;;4943215;28;20035;-77
2023/05/17 01:07:59;;;;;;;1.77;0.63;;;8.30;99.90;;;;;;4946825;28;20047;-77
2023/05/17 01:11:17;;;;;;;2.20;0.70;;;8.20;99.90;;;;;;4956228;28;20027;-77
2023/05/17 01:14:12;;;;;;;0.93;0.75;;;8.20;99.90;;;;;;4953958;28;20102;-77
2023/05/17 01:17:24;;;;;;;1.35;0.80;;;8.30;99.90;;;;;;4946027;28;20102;-77
2023/05/17 01:20:11;;;;;;;3.70;0.95;;;8.20;99.90;;;;;;4880035;29;20072;-76
2023/05/17 01:23:22;;;;;;;8.30;0.73;;;8.20;99.90;;;;;;4889174;29;20052;-76
2023/05/17 01:26:10;;;;;;;8.15;1.08;;;8.20;99.90;;;;;;4903684;29;20398;-76
2023/05/17 01:28:40;;;;;;;1.30;0.57;;;8.20;99.90;;;;;;4885426;29;20048;-76
2023/05/17 01:31:08;;;;;;;4.55;0.80;;;8.20;99.90;;;;;;4892659;29;20096;-76
2023/05/17 01:33:35;;;;;;;2.17;0.80;;;8.20;99.90;;;;;;4885280;29;20107;-77
2023/05/17 01:36:01;;;;;;;5.25;1.00;;;8.20;99.90;;;;;;4907816;29;20035;-77
2023/05/17 01:38:26;;;;;;;3.33;0.93;;;8.10;99.90;;;;;;4901282;29;20052;-76
2023/05/17 01:41:10;;;;;;;0.52;0.45;;;8.10;99.90;;;;;;4884156;29;20417;-77
2023/05/17 01:44:04;;;;;;;2.60;1.20;;;8.00;99.90;;;;;;4885786;29;20398;-77
2023/05/17 01:46:39;;;;;;;4.10;0.90;;;7.90;99.90;;;;;;4892563;29;20036;-77
2023/05/17 01:49:28;;;;;;;2.13;0.77;;;7.80;99.90;;;;;;4900788;29;20121;-77
2023/05/17 01:52:00;;;;;;;0.63;0.63;;;7.90;99.90;;;;;;4932583;28;20538;-77
2023/05/17 01:54:35;;;;;;;1.77;0.77;;;7.70;99.90;;;;;;4961676;28;20440;-77
2023/05/17 01:57:06;;;;;;;0.90;0.70;;;7.70;99.90;;;;;;4956945;28;20036;-77
2023/05/17 01:59:33;;;;;;;2.58;1.45;;;7.60;99.90;;;;;;4962601;28;20475;-77
2023/05/17 02:02:07;;;;;;;3.70;0.63;;;7.60;99.90;;;;;;4960279;28;20144;-77
2023/05/17 02:04:35;;;;;;;4.28;0.80;;;7.60;99.90;;;;;;4959109;28;20063;-77
2023/05/17 02:07:02;;;;;;;5.53;0.98;;;7.40;99.90;;;;;;4931684;29;20119;-77
2023/05/17 02:09:28;;;;;;;5.50;1.23;;;7.50;99.90;;;;;;4961312;28;20106;-77
2023/05/17 02:11:54;;;;;;;1.38;0.73;;;7.50;99.90;;;;;;4958081;28;20035;-77
2023/05/17 02:14:20;;;;;;;3.13;1.00;;;7.50;99.90;;;;;;4958248;28;20154;-77
2023/05/17 02:16:46;;;;;;;0.52;0.40;;;7.50;99.90;;;;;;4947560;28;20039;-77
2023/05/17 02:19:13;;;;;;;1.98;0.80;;;7.40;99.90;;;;;;4956917;28;20324;-77
2023/05/17 02:21:39;;;;;;;2.67;0.88;;;7.50;99.90;;;;;;4948791;28;20020;-77
2023/05/17 02:24:05;;;;;;;1.25;0.68;;;7.40;99.90;;;;;;4962635;28;20050;-77
2023/05/17 02:26:31;;;;;;;1.17;0.82;;;7.50;99.90;;;;;;4967472;28;20038;-77
2023/05/17 02:28:57;;;;;;;4.85;0.50;;;7.60;99.90;;;;;;4958274;28;20527;-77
2023/05/17 02:31:25;;;;;;;2.60;0.63;;;7.60;99.90;;;;;;4971067;28;20043;-77
2023/05/17 02:33:52;;;;;;;2.70;0.90;;;7.60;99.90;;;;;;4962393;28;20028;-77
2023/05/17 02:36:18;;;;;;;4.07;1.17;;;7.60;99.90;;;;;;4969996;28;20113;-77
2023/05/17 02:38:43;;;;;;;1.40;1.00;;;7.60;99.90;;;;;;4956310;28;20114;-77
2023/05/17 02:41:09;;;;;;;2.45;1.05;;;7.60;99.90;;;;;;4970803;28;20034;-77
2023/05/17 02:43:35;;;;;;;1.05;0.52;;;7.60;99.90;;;;;;4955765;28;20031;-77
2023/05/17 02:46:01;;;;;;;7.05;1.13;;;7.70;99.90;;;;;;4970202;28;20490;-77
2023/05/17 02:48:26;;;;;;;0.63;0.43;;;7.70;99.90;;;;;;4966213;28;20030;-77
2023/05/17 02:50:52;;;;;;;3.40;0.98;;;7.70;99.90;;;;;;4960987;28;20035;-77
2023/05/17 02:53:18;;;;;;;1.70;0.73;;;7.80;99.90;;;;;;4954889;28;20046;-77
2023/05/17 02:55:43;;;;;;;3.08;0.88;;;7.80;99.90;;;;;;4966704;28;20031;-77
2023/05/17 02:58:10;;;;;;;0.55;0.50;;;7.80;99.90;;;;;;4958045;28;20418;-77
2023/05/17 03:00:36;;;;;;;6.68;2.03;;;7.80;99.90;;;;;;4964894;28;20119;-77
2023/05/17 03:03:01;;;;;;;3.75;1.63;;;7.80;99.90;;;;;;4957458;28;20128;-76
2023/05/17 03:05:27;;;;;;;1.38;0.75;;;7.80;99.90;;;;;;4961941;28;20042;-77
2023/05/17 03:07:53;;;;;;;4.35;0.93;;;7.80;99.90;;;;;;4952698;28;20085;-76
2023/05/17 03:10:18;;;;;;;1.98;0.95;;;7.70;99.90;;;;;;4966224;28;20077;-77
2023/05/17 03:12:44;;;;;;;2.45;0.70;;;7.80;99.90;;;;;;4957945;28;20027;-76
2023/05/17 03:15:10;;;;;;;11.70;1.17;;;7.80;99.90;;;;;;4958329;28;20081;-77
2023/05/17 03:17:36;;;;;;;2.05;1.02;;;7.70;99.90;;;;;;4950487;28;20169;-77
2023/05/17 03:20:03;;;;;;;1.33;1.10;;;7.60;99.90;;;;;;4964524;28;20113;-77
2023/05/17 03:22:28;;;;;;;2.83;0.90;;;7.70;99.90;;;;;;4957696;28;20560;-77
2023/05/17 03:24:54;;;;;;;1.58;0.60;;;7.80;99.90;;;;;;4964592;28;20106;-76
2023/05/17 03:27:20;;;;;;;7.30;0.90;;;7.80;99.90;;;;;;4965664;28;20035;-76
2023/05/17 03:29:45;;;;;;;1.88;0.73;;;7.80;99.90;;;;;;4965445;28;20027;-77
2023/05/17 03:32:11;;;;;;;1.33;0.60;;;7.80;99.90;;;;;;4957222;28;20036;-78
2023/05/17 03:34:37;;;;;;;2.88;0.80;;;7.80;99.90;;;;;;4989176;23;20049;-75
2023/05/17 03:37:03;;;;;;;1.17;0.73;;;7.80;99.90;;;;;;4990382;28;20490;-75
2023/05/17 03:39:28;;;;;;;1.38;0.93;;;7.70;99.90;;;;;;4983559;28;20037;-75
2023/05/17 03:41:54;;;;;;;1.48;0.77;;;7.60;99.90;;;;;;4947711;28;20069;-75
2023/05/17 03:44:20;;;;;;;1.73;0.70;;;7.60;99.90;;;;;;4955278;28;20058;-75
2023/05/17 03:46:46;;;;;;;1.13;0.80;;;7.70;99.90;;;;;;4953974;29;20117;-75
2023/05/17 03:49:11;;;;;;;4.53;0.70;;;7.70;99.90;;;;;;4956294;28;20035;-75
2023/05/17 03:51:37;;;;;;;0.93;0.70;;;7.70;99.90;;;;;;4965406;28;20046;-76
2023/05/17 03:54:03;;;;;;;4.55;1.52;;;7.80;99.90;;;;;;4976072;28;20045;-75
2023/05/17 03:56:30;;;;;;;3.50;1.38;;;7.90;99.90;;;;;;4952638;28;20498;-76
2023/05/17 03:58:55;;;;;;;2.55;0.80;;;7.90;99.90;;;;;;4961559;28;20207;-75
2023/05/17 04:01:21;;;;;;;4.25;0.93;;;7.90;99.90;;;;;;4945994;29;20724;-75
2023/05/17 04:03:47;;;;;;;1.83;0.82;;;7.90;99.90;;;;;;4935577;28;20035;-76
2023/05/17 04:06:16;;;;;;;5.20;0.77;;;8.00;99.90;;;;;;4965046;28;20399;-76
2023/05/17 04:08:41;;;;;;;14.60;0.88;;;8.00;99.90;;;;;;4944632;28;20458;-76
2023/05/17 04:11:12;;;;;;;7.43;1.20;;;7.90;99.90;;;;;;4964953;28;20043;-77
2023/05/17 04:13:39;;;;;;;3.47;1.10;;;7.90;99.90;;;;;;4961993;28;20483;-76
2023/05/17 04:16:09;;;;;;;3.20;1.45;;;7.80;99.90;;;;;;4940885;29;20106;-76
2023/05/17 04:18:37;;;;;;;3.67;1.15;;;7.80;99.90;;;;;;4918862;28;20479;-76
2023/05/17 04:21:04;;;;;;;2.88;1.00;;;7.80;99.90;;;;;;4964559;28;20147;-82
2023/05/17 04:23:32;;;;;;;6.53;1.48;;;7.80;99.90;;;;;;4945327;28;20031;-74
2023/05/17 04:25:59;;;;;;;3.95;1.17;;;7.80;99.90;;;;;;4959109;28;20380;-76
2023/05/17 04:28:25;;;;;;;2.53;0.80;;;7.80;99.90;;;;;;4928924;28;20039;-77
2023/05/17 04:30:51;;;;;;;2.25;1.02;;;7.80;99.90;;;;;;4946768;28;20031;-76
2023/05/17 04:33:17;;;;;;;11.43;1.45;;;7.90;99.90;;;;;;4944239;28;20102;-79
2023/05/17 04:35:45;;;;;;;3.33;1.23;;;8.00;99.90;;;;;;4955464;28;20047;-78
2023/05/17 04:38:11;;;;;;;3.70;1.45;;;8.00;99.90;;;;;;4944482;28;20024;-77
2023/05/17 04:40:37;;;;;;;2.92;0.75;;;8.00;99.90;;;;;;4955183;28;20113;-77
2023/05/17 04:43:02;;;;;;;2.80;0.82;;;8.10;99.90;;;;;;4956669;28;20130;-77
2023/05/17 04:45:28;;;;;;;6.18;1.40;;;8.10;99.90;;;;;;4935945;29;20113;-77
2023/05/17 04:47:54;;;;;;;4.82;1.23;;;8.20;99.90;;;;;;4958885;28;20109;-77
2023/05/17 04:50:20;;;;;;;3.03;1.65;;;8.20;99.90;;;;;;4965499;28;20034;-78
2023/05/17 04:52:46;;;;;;;2.15;0.75;;;8.20;99.90;;;;;;4966525;28;20117;-77
2023/05/17 04:55:12;;;;;;;1.60;1.00;;;8.20;99.90;;;;;;4976062;28;20105;-76
2023/05/17 04:57:38;;;;;;;6.50;1.98;;;8.20;99.90;;;;;;4969496;28;20050;-78
2023/05/17 05:00:06;;;;;;;4.68;1.80;;;8.30;99.90;;;;;;4963783;28;20033;-79
2023/05/17 05:02:32;;;;;;;4.40;1.50;;;8.40;99.90;;;;;;4950075;28;20037;-77
2023/05/17 05:04:58;;;;;;;2.97;1.60;;;8.40;99.90;;;;;;4964010;28;20037;-76
2023/05/17 05:07:24;;;;;;;4.10;1.10;;;8.40;99.90;;;;;;4966973;28;20464;-79
2023/05/17 05:09:50;;;;;;;8.98;1.33;;;8.50;99.90;;;;;;4963822;28;20026;-76
2023/05/17 05:12:17;;;;;;;4.78;1.80;;;8.50;99.90;;;;;;4949747;28;20031;-78
2023/05/17 05:14:43;;;;;;;2.08;1.00;;;8.50;99.90;;;;;;4959449;28;20039;-79
2023/05/17 05:17:09;;;;;;;6.63;1.50;;;8.60;99.90;;;;;;4950615;29;20492;-81
2023/05/17 05:19:34;;;;;;;3.55;1.52;;;8.60;99.90;;;;;;4963037;28;20099;-80
2023/05/17 05:22:00;;;;;;;2.13;0.85;;;8.70;99.90;;;;;;4983862;28;20035;-79
2023/05/17 05:24:26;;;;;;;4.18;1.25;;;8.80;99.90;;;;;;4961996;28;20046;-80
2023/05/17 05:26:52;;;;;;;3.78;1.35;;;8.80;99.90;;;;;;4934687;29;20050;-80
2023/05/17 05:29:18;;;;;;;2.90;1.08;;;8.90;99.90;;;;;;4958678;28;20384;-79
2023/05/17 05:31:43;;;;;;;5.38;1.20;;;8.90;99.90;;;;;;4971804;28;20038;-80
2023/05/17 05:34:09;;;;;;;4.25;1.27;;;9.00;99.90;;;;;;4960142;28;20043;-80
2023/05/17 05:36:35;;;;;;;1.77;0.80;;;9.00;99.90;;;;;;4954079;28;20070;-79
2023/05/17 05:39:01;;;;;;;3.08;1.00;;;9.10;99.90;;;;;;4961386;28;20031;-79
2023/05/17 05:41:28;;;;;;;7.88;1.73;;;9.10;99.90;;;;;;4934998;29;20597;-79
2023/05/17 05:43:53;;;;;;;1.13;0.68;;;9.00;99.90;;;;;;4957596;28;20484;-79
2023/05/17 05:46:19;;;;;;;6.03;1.20;;;9.20;99.90;;;;;;4969039;28;20119;-79
2023/05/17 05:48:45;;;;;;;2.20;1.00;;;9.10;99.90;;;;;;4961323;28;20090;-79
2023/05/17 05:51:11;;;;;;;5.63;2.10;;;9.10;99.90;;;;;;4967975;28;20035;-80
2023/05/17 05:53:41;;;;;;;1.30;1.00;;;9.10;99.90;;;;;;4961716;28;20118;-81
2023/05/17 05:56:06;;;;;;;3.67;1.25;;;9.20;99.90;;;;;;4950557;28;20126;-78
2023/05/17 05:58:32;;;;;;;4.18;1.30;;;9.30;99.90;;;;;;4958380;28;20546;-80
2023/05/17 06:00:58;;;;;;;3.47;1.08;;;9.50;99.90;;;;;;4960511;28;20031;-78
2023/05/17 06:03:24;;;;;;;3.78;1.33;;;9.70;99.90;;;;;;4957424;28;20057;-79
2023/05/17 06:05:50;;;;;;;4.75;1.80;;;9.80;99.90;;;;;;4938945;29;20484;-79
2023/05/17 06:08:16;;;;;;;3.58;1.65;;;9.80;99.90;;;;;;4961905;28;20042;-79
2023/05/17 06:10:42;;;;;;;5.18;1.38;;;10.00;99.90;;;;;;4955812;29;20106;-80
2023/05/17 06:13:08;;;;;;;3.33;1.35;;;10.10;99.90;;;;;;4945131;28;20451;-80
2023/05/17 06:15:34;;;;;;;9.30;2.40;;;10.20;99.90;;;;;;4966868;28;20030;-80
2023/05/17 06:18:00;;;;;;;3.55;1.20;;;10.10;99.90;;;;;;4953089;28;20031;-80
2023/05/17 06:20:25;;;;;;;6.15;1.13;;;10.20;99.90;;;;;;4954556;29;20046;-80
2023/05/17 06:22:51;;;;;;;4.40;1.60;;;10.20;99.90;;;;;;4956252;28;20542;-72
2023/05/17 06:25:17;;;;;;;3.67;1.15;;;10.20;99.90;;;;;;4963618;28;20066;-72
2023/05/17 06:27:43;;;;;;;4.10;1.23;;;10.50;99.90;;;;;;4954947;28;20047;-72
2023/05/17 06:30:09;;;;;;;7.97;1.45;;;10.50;99.90;;;;;;4977833;28;20041;-72
2023/05/17 06:32:35;;;;;;;3.92;1.60;;;10.70;99.90;;;;;;4971052;28;20027;-72
2023/05/17 06:35:01;;;;;;;5.88;1.48;;;10.70;99.90;;;;;;4966783;28;20097;-72
2023/05/17 06:37:27;;;;;;;3.60;1.23;;;10.90;99.90;;;;;;4952098;28;20476;-72
2023/05/17 06:40:05;;;;;;;3.28;1.45;;;10.90;99.90;;;;;;4966346;28;20097;-72
2023/05/17 06:42:32;;;;;;;6.85;2.20;;;10.90;99.90;;;;;;4953085;28;20031;-73
2023/05/17 06:44:58;;;;;;;6.43;1.45;;;11.10;99.90;;;;;;4966563;28;20031;-72
2023/05/17 06:47:24;;;;;;;4.97;2.10;;;11.00;99.90;;;;;;4969747;28;20028;-72
2023/05/17 06:49:49;;;;;;;4.90;1.25;;;11.30;99.90;;;;;;4956941;28;20118;-72
2023/05/17 06:52:15;;;;;;;4.38;1.00;;;11.30;99.90;;;;;;4952077;28;20034;-72
2023/05/17 06:54:41;;;;;;;9.15;1.65;;;11.50;99.90;;;;;;4965017;28;20081;-70
2023/05/17 06:57:13;;;;;;;2.25;0.95;;;11.50;99.90;;;;;;4953300;29;20031;-72
2023/05/17 06:59:39;;;;;;;4.82;1.45;;;11.70;99.90;;;;;;4964923;28;20495;-72
2023/05/17 07:02:05;;;;;;;4.25;1.75;;;11.80;99.90;;;;;;4953620;29;20055;-72
2023/05/17 07:04:31;;;;;;;4.40;1.90;;;11.60;99.90;;;;;;4964686;28;20042;-72
2023/05/17 07:06:57;;;;;;;4.07;1.48;;;11.80;99.90;;;;;;4955896;28;20501;-73
2023/05/17 07:09:23;;;;;;;5.90;2.03;;;11.90;99.90;;;;;;4962332;28;20039;-72
2023/05/17 07:11:48;;;;;;;3.00;1.38;;;12.00;99.90;;;;;;4974071;28;20062;-73
2023/05/17 07:14:14;;;;;;;4.32;1.30;;;12.10;99.90;;;;;;4960805;28;20065;-73
2023/05/17 07:16:40;;;;;;;8.65;1.20;;;12.00;99.90;;;;;;4974051;28;20058;-72
2023/05/17 07:19:06;;;;;;;10.93;2.53;;;12.10;99.90;;;;;;4961164;28;20101;-70
2023/05/17 07:21:32;;;;;;;6.35;1.75;;;12.20;99.90;;;;;;4939925;28;20440;-72
2023/05/17 07:23:58;;;;;;;2.95;1.00;;;12.40;99.90;;;;;;4963272;28;20039;-75
2023/05/17 07:26:24;;;;;;;2.60;1.00;;;12.50;99.90;;;;;;4953301;29;20037;-73
2023/05/17 07:28:50;;;;;;;6.50;1.80;;;12.70;99.90;;;;;;4974419;28;20506;-73
2023/05/17 07:31:16;;;;;;;2.40;1.20;;;12.60;99.90;;;;;;4953331;29;20037;-74
2023/05/17 07:33:42;;;;;;;5.93;1.30;;;12.80;99.90;;;;;;4959515;28;20039;-71
2023/05/17 07:36:08;;;;;;;2.75;1.25;;;12.90;99.90;;;;;;4937103;29;20042;-73
2023/05/17 07:38:35;;;;;;;6.35;1.77;;;13.00;99.90;;;;;;4959943;28;20031;-71
2023/05/17 07:41:01;;;;;;;6.18;1.58;;;12.80;99.90;;;;;;4968674;28;20108;-73
2023/05/17 07:43:28;;;;;;;7.90;1.67;;;13.00;99.90;;;;;;4948825;28;20035;-73
2023/05/17 07:45:53;;;;;;;4.50;1.65;;;13.40;99.90;;;;;;4968105;28;20035;-73
2023/05/17 07:48:19;;;;;;;5.80;1.70;;;13.60;99.90;;;;;;4966923;28;20554;-71
2023/05/17 07:50:45;;;;;;;10.57;2.42;;;13.70;99.90;;;;;;4953727;29;20101;-73
2023/05/17 07:53:11;;;;;;;4.47;2.30;;;13.90;99.90;;;;;;4935009;28;20042;-74
2023/05/17 07:55:37;;;;;;;7.18;1.70;;;13.90;99.90;;;;;;4965474;28;20034;-74
2023/05/17 07:58:03;;;;;;;3.80;1.40;;;14.10;99.90;;;;;;4957525;28;20039;-74
2023/05/17 08:00:29;;;;;;;2.75;1.20;;;13.90;99.90;;;;;;4961422;28;20078;-74
2023/05/17 08:02:56;;;;;;;1.25;0.82;;;13.80;99.90;;;;;;4941205;28;20443;-73
2023/05/17 08:05:22;;;;;;;2.13;1.08;;;13.90;99.90;;;;;;4964964;28;20098;-73
2023/05/17 08:07:47;;;;;;;2.15;1.17;;;14.00;99.90;;;;;;4962556;28;20046;-71
2023/05/17 08:10:13;;;;;;;2.03;0.82;;;13.90;99.90;;;;;;4955225;28;20336;-74
2023/05/17 08:12:39;;;;;;;5.50;1.48;;;14.30;99.90;;;;;;4951173;28;20038;-73
2023/05/17 08:15:06;;;;;;;4.80;1.63;;;14.10;99.90;;;;;;4955689;28;20026;-72
2023/05/17 08:17:32;;;;;;;2.42;1.52;;;14.50;99.90;;;;;;4962571;28;20034;-72
2023/05/17 08:19:57;;;;;;;4.30;1.40;;;14.80;99.90;;;;;;4963814;28;20042;-73
2023/05/17 08:22:25;;;;;;;5.82;1.13;;;15.00;99.90;;;;;;4948651;28;20042;-72
2023/05/17 08:24:51;;;;;;;1.92;0.90;;;15.20;99.90;;;;;;4962603;28;20097;-72
2023/05/17 08:27:16;;;;;;;5.25;1.02;;;15.30;99.70;;;;;;4949169;28;20039;-73
2023/05/17 08:29:42;;;;;;;5.10;1.20;;;15.50;99.20;;;;;;4960148;28;20141;-73
2023/05/17 08:32:08;;;;;;;2.15;1.00;;;15.00;99.00;;;;;;4948893;29;20468;-72
2023/05/17 08:34:34;;;;;;;2.97;1.10;;;15.20;98.10;;;;;;4946907;28;20063;-72
2023/05/17 08:37:00;;;;;;;7.70;1.73;;;15.10;97.80;;;;;;4947632;28;20036;-72
2023/05/17 08:39:25;;;;;;;2.95;0.90;;;15.10;98.00;;;;;;4944369;28;20065;-73
2023/05/17 08:41:52;;;;;;;5.45;1.55;;;15.00;97.90;;;;;;4949417;28;20914;-73
2023/05/17 08:44:19;;;;;;;2.65;1.15;;;14.90;98.00;;;;;;4959642;28;20058;-72
2023/05/17 08:46:52;;;;;;;2.30;1.10;;;14.80;98.10;;;;;;4935391;28;20030;-73
2023/05/17 08:49:24;;;;;;;8.95;1.88;;;14.60;98.60;;;;;;4959169;28;20135;-82
2023/05/17 08:51:52;;;;;;;2.50;0.90;;;14.40;99.10;;;;;;4950355;28;20039;-80
2023/05/17 08:54:18;;;;;;;2.72;1.05;;;14.50;98.80;;;;;;4961611;28;20042;-79
2023/05/17 08:56:46;;;;;;;4.50;1.15;;;14.70;98.50;;;;;;4950989;29;20038;-79
2023/05/17 08:59:12;;;;;;;4.30;1.42;;;14.60;99.10;;;;;;4974688;28;20038;-82
2023/05/17 09:01:40;;;;;;;1.65;1.10;;;14.60;98.30;;;;;;4935133;29;20085;-82
2023/05/17 09:04:08;;;;;;;3.40;1.33;;;14.60;98.20;;;;;;4956876;28;20050;-79
2023/05/17 09:06:34;;;;;;;3.75;1.15;;;14.70;98.70;;;;;;4953643;28;20027;-82
2023/05/17 09:09:00;;;;;;;2.60;1.33;;;14.80;98.90;;;;;;4970888;28;20027;-80
2023/05/17 09:11:34;;;;;;;5.38;1.30;;;15.10;97.80;;;;;;4970794;28;20054;-80
2023/05/17 09:14:05;;;;;;;7.35;1.90;;;15.20;97.50;;;;;;4943356;29;20121;-78
2023/05/17 09:16:36;;;;;;;1.63;0.93;;;15.20;96.80;;;;;;4952497;29;20088;-77
2023/05/17 09:19:04;;;;;;;1.92;0.90;;;15.20;96.70;;;;;;4955826;28;20035;-75
2023/05/17 09:21:31;;;;;;;4.03;1.08;;;15.50;96.50;;;;;;4952609;29;20031;-77
2023/05/17 09:24:00;;;;;;;2.28;1.10;;;15.50;95.70;;;;;;4957056;28;20062;-77
2023/05/17 09:26:46;;;;;;;4.78;0.80;;;15.40;96.00;;;;;;4936668;29;20023;-78
2023/05/17 09:29:15;;;;;;;5.47;1.27;;;15.70;95.40;;;;;;4935075;28;20039;-79
2023/05/17 09:31:42;;;;;;;6.15;1.20;;;15.50;95.70;;;;;;4968366;28;20037;-77
2023/05/17 09:34:08;;;;;;;5.78;0.95;;;15.80;95.50;;;;;;4971135;23;20059;-74
2023/05/17 09:36:36;;;;;;;4.22;1.13;;;15.90;95.30;;;;;;4951438;29;20035;-73
2023/05/17 09:39:05;;;;;;;1.25;0.77;;;15.80;94.90;;;;;;4945455;29;20045;-72
2023/05/17 09:41:40;;;;;;;4.13;1.15;;;16.00;94.20;;;;;;4927664;29;20393;-72
2023/05/17 09:44:08;;;;;;;3.28;0.88;;;16.00;94.60;;;;;;4945307;28;20046;-72
2023/05/17 09:46:35;;;;;;;2.38;1.05;;;16.20;94.10;;;;;;4944728;28;20035;-71
2023/05/17 09:49:02;;;;;;;2.55;1.08;;;16.10;93.90;;;;;;4945328;28;20039;-71
2023/05/17 09:51:36;;;;;;;1.98;0.77;;;16.10;93.20;;;;;;4944492;28;20031;-72
2023/05/17 09:54:02;;;;;;;3.55;1.38;;;15.50;93.80;;;;;;4943841;28;20403;-72
2023/05/17 09:56:29;;;;;;;2.97;1.15;;;15.40;93.90;;;;;;4939899;29;20414;-72
2023/05/17 09:58:57;;;;;;;3.55;0.80;;;15.60;95.20;;;;;;4943369;28;20059;-73
2023/05/17 10:01:27;;;;;;;2.88;1.23;;;15.50;94.80;;;;;;4944545;28;20046;-74
2023/05/17 10:03:54;;;;;;;2.90;1.02;;;15.20;94.90;;;;;;4928368;29;20575;-72
2023/05/17 10:06:22;;;;;;;2.97;1.30;;;15.20;94.50;;;;;;4942907;29;20041;-72
2023/05/17 10:08:55;;;;;;;2.65;1.23;;;15.60;94.10;;;;;;4945101;28;20122;-72
2023/05/17 10:11:32;;;;;;;5.00;1.38;;;15.20;94.50;;;;;;4944462;28;20111;-72
2023/05/17 10:14:21;;;;;;;3.17;0.95;;;15.20;94.30;;;;;;4945319;28;20575;-73
2023/05/17 10:16:48;;;;;;;3.13;0.70;;;15.40;94.90;;;;;;4928955;29;20043;-76
2023/05/17 10:19:15;;;;;;;4.95;1.77;;;15.00;94.90;;;;;;4922304;29;20048;-76
2023/05/17 10:21:42;;;;;;;2.80;1.40;;;15.30;95.10;;;;;;4938697;29;20119;-73
2023/05/17 10:24:10;;;;;;;4.00;1.42;;;15.20;94.80;;;;;;4939100;29;20122;-73
2023/05/17 10:26:37;;;;;;;1.77;0.95;;;15.30;94.90;;;;;;4915949;29;20440;-74
2023/05/17 10:29:06;;;;;;;5.13;0.90;;;15.10;95.60;;;;;;4938735;29;20047;-74
2023/05/17 10:31:33;;;;;;;2.45;1.00;;;15.10;95.00;;;;;;4940508;29;20379;-73
2023/05/17 10:34:05;;;;;;;3.22;0.95;;;15.10;95.00;;;;;;4936960;29;20074;-74
2023/05/17 10:36:31;;;;;;;5.30;1.50;;;14.90;94.80;;;;;;4942587;29;20050;-72
2023/05/17 10:38:58;;;;;;;6.32;1.20;;;15.30;95.00;;;;;;4943255;29;20766;-72
2023/05/17 10:41:29;;;;;;;4.50;1.40;;;15.40;94.60;;;;;;4942702;29;20042;-72
2023/05/17 10:43:56;;;;;;;3.65;1.08;;;15.70;94.30;;;;;;4945801;28;20039;-72
2023/05/17 10:46:23;;;;;;;3.80;1.05;;;16.10;93.90;;;;;;4929949;29;20054;-72
2023/05/17 10:48:54;;;;;;;3.40;1.10;;;16.40;93.30;;;;;;4946683;28;20035;-73
2023/05/17 10:51:25;;;;;;;3.05;0.93;;;16.70;92.80;;;;;;4945836;29;20027;-72
2023/05/17 10:54:17;;;;;;;3.83;1.27;;;16.70;91.90;;;;;;4929807;29;20051;-73
2023/05/17 10:56:54;;;;;;;3.17;1.67;;;16.60;92.30;;;;;;4941098;29;20046;-74
2023/05/17 10:59:23;;;;;;;4.57;1.20;;;16.70;92.00;;;;;;4943188;29;20046;-74
2023/05/17 11:01:56;;;;;;;4.45;1.40;;;16.60;91.90;;;;;;4937936;29;20031;-73
2023/05/17 11:04:25;;;;;;;2.10;0.90;;;16.60;91.80;;;;;;4945113;28;20042;-75
2023/05/17 11:07:27;;;;;;;1.50;0.80;;;16.40;93.20;;;;;;4947510;29;20031;-74
2023/05/17 11:10:08;;;;;;;4.82;1.10;;;16.70;92.50;;;;;;4941767;28;20036;-72
2023/05/17 11:12:52;;;;;;;3.22;1.30;;;16.80;92.60;;;;;;4954390;29;20420;-73
2023/05/17 11:15:25;;;;;;;4.32;1.27;;;17.30;92.00;;;;;;4929157;29;20373;-73
2023/05/17 11:17:52;;;;;;;3.55;0.95;;;16.80;93.00;;;;;;4952625;28;20027;-73
2023/05/17 11:20:24;;;;;;;5.80;1.42;;;16.80;91.80;;;;;;4941930;29;20093;-73
2023/05/17 11:23:03;;;;;;;4.43;1.45;;;16.80;92.40;;;;;;4951489;29;20546;-74
2023/05/17 11:25:39;;;;;;;9.35;1.67;;;16.90;92.90;;;;;;4944507;29;20039;-72
2023/05/17 11:28:18;;;;;;;4.82;1.33;;;17.20;92.00;;;;;;4947503;28;20484;-73
2023/05/17 11:30:50;;;;;;;4.38;1.40;;;17.40;91.40;;;;;;4936013;29;20034;-73
2023/05/17 11:33:16;;;;;;;3.85;1.45;;;17.00;91.40;;;;;;4932262;29;20031;-71
2023/05/17 11:35:44;;;;;;;7.57;2.10;;;17.10;91.20;;;;;;4946426;28;20042;-74
2023/05/17 11:38:33;;;;;;;2.40;1.00;;;17.50;91.10;;;;;;4946202;29;20032;-73
2023/05/17 11:41:20;;;;;;;5.43;1.15;;;18.30;90.10;;;;;;4936799;29;20048;-73
2023/05/17 11:43:48;;;;;;;2.75;1.65;;;18.20;89.60;;;;;;4936394;29;20400;-73
2023/05/17 11:46:23;;;;;;;3.20;0.88;;;17.90;89.10;;;;;;4944801;29;20031;-73
2023/05/17 11:48:51;;;;;;;3.08;1.10;;;18.30;89.90;;;;;;4933002;28;20407;-73
2023/05/17 11:51:18;;;;;;;1.50;0.88;;;18.50;87.50;;;;;;4945812;28;20023;-73
2023/05/17 11:53:46;;;;;;;16.67;1.70;;;18.70;85.90;;;;;;4945543;28;20058;-74
2023/05/17 11:56:12;;;;;;;8.60;1.65;;;19.10;86.90;;;;;;4943854;29;20094;-72
2023/05/17 11:58:38;;;;;;;4.07;1.33;;;19.00;86.90;;;;;;4945065;29;20051;-73
2023/05/17 12:01:04;;;;;;;4.93;1.48;;;18.90;85.60;;;;;;4944401;29;20035;-73
2023/05/17 12:03:32;;;;;;;10.30;1.98;;;19.00;87.40;;;;;;4946695;28;20125;-72
2023/05/17 12:06:14;;;;;;;3.63;1.00;;;18.40;86.00;;;;;;4944595;29;20023;-73
2023/05/17 12:08:44;;;;;;;1.88;0.82;;;18.50;86.30;;;;;;4945816;29;20061;-59
2023/05/17 12:11:14;;;;;;;6.13;1.42;;;18.70;87.10;;;;;;4945848;28;20367;-72
2023/05/17 12:13:41;;;;;;;4.32;1.00;;;18.80;85.00;;;;;;4929716;29;20039;-72
2023/05/17 12:16:12;;;;;;;3.95;1.55;;;17.80;84.60;;;;;;4944214;29;20027;-72
2023/05/17 12:18:51;;;;;;;4.32;0.95;;;18.50;83.20;;;;;;4919418;29;20035;-72
2023/05/17 12:21:19;;;;;;;4.75;1.70;;;19.30;81.60;;;;;;4942127;29;20035;-72
2023/05/17 12:23:49;;;;;;;4.07;1.88;;;19.30;83.90;;;;;;4939924;29;20027;-52
2023/05/17 12:26:22;;;;;;;3.88;0.88;;;20.00;80.40;;;;;;4948637;29;20750;-73
2023/05/17 12:28:57;;;;;;;5.82;1.30;;;19.20;80.80;;;;;;4950397;28;20038;-73
2023/05/17 12:31:35;;;;;;;4.03;1.33;;;18.30;84.00;;;;;;4944415;29;20031;-79
2023/05/17 12:34:03;;;;;;;10.65;1.33;;;18.20;84.20;;;;;;4946108;28;20134;-73
2023/05/17 12:36:32;;;;;;;3.42;0.80;;;18.40;84.50;;;;;;4943655;29;20615;-75
2023/05/17 12:38:59;;;;;;;5.40;0.85;;;18.60;82.60;;;;;;4944958;29;20061;-73
2023/05/17 12:41:26;;;;;;;2.75;1.00;;;18.60;80.60;;;;;;4943646;29;20024;-71
2023/05/17 12:43:52;;;;;;;6.60;1.15;;;18.80;80.50;;;;;;4944860;28;20099;-74
2023/05/17 12:46:22;;;;;;;3.63;1.00;;;18.30;82.00;;;;;;4944628;28;20039;-73
2023/05/17 12:48:50;;;;;;;1.70;0.90;;;18.20;83.90;;;;;;4944205;29;20407;-71
2023/05/17 12:51:22;;;;;;;6.40;1.40;;;18.30;81.60;;;;;;4934081;29;20036;-72
2023/05/17 12:53:56;;;;;;;0.98;0.68;;;18.40;81.40;;;;;;4943044;29;20035;-73
2023/05/17 12:56:23;;;;;;;3.22;1.45;;;18.60;81.00;;;;;;4927485;29;20029;-71
2023/05/17 12:59:12;;;;;;;5.95;1.00;;;18.20;81.80;;;;;;4943501;28;20380;-71